This is the latest recevied weather packets stored in our database for station/object KC5DP. If no packets are shown the sender has not sent any weather packets the latest 10 day(s).
| Time | Temp. | Humidity | Pressure | Rain* | Wind** | Luminosity | Snow |
|---|---|---|---|---|---|---|---|
| 1778001305 | 27.22° C | 63% | 1012.1 hPa | 0 mm | - | 975 W/m² | - |
| 1778001002 | 26.67° C | 69% | 1012.2 hPa | 0 mm | - | 818 W/m² | - |
| 1778000698 | 26.67° C | 65% | 1012.1 hPa | 0 mm | - | 745 W/m² | - |
| 1778000394 | 27.22° C | 65% | 1012.3 hPa | 0 mm | - | 736 W/m² | - |
| 1778000090 | 26.67° C | 65% | 1012 hPa | 0 mm | - | 708 W/m² | - |
| 1777999785 | 27.22° C | 63% | 1012.2 hPa | 0 mm | - | 593 W/m² | - |
| 1777999482 | 26.67° C | 65% | 1012 hPa | 0 mm | - | 703 W/m² | - |
| 1777999180 | 26.67° C | 65% | 1012.3 hPa | 0 mm | - | 672 W/m² | - |
| 1777998879 | 27.22° C | 62% | 1012.1 hPa | 0 mm | - | 755 W/m² | - |
| 1777998578 | 27.22° C | 63% | 1012.2 hPa | 0 mm | - | 601 W/m² | - |
| 1777998273 | 26.67° C | 68% | 1012.1 hPa | 0 mm | - | 658 W/m² | - |
| 1777997970 | 26.11° C | 67% | 1012.1 hPa | 0 mm | - | 567 W/m² | - |
| 1777997666 | 26.67° C | 65% | 1012.1 hPa | 0 mm | - | 635 W/m² | - |
| 1777997364 | 26.67° C | 68% | 1012.3 hPa | 0 mm | - | 699 W/m² | - |
| 1777997057 | 26.11° C | 67% | 1012.2 hPa | 0 mm | - | 571 W/m² | - |
| 1777996753 | 25.56° C | 67% | 1012.4 hPa | 0 mm | - | 410 W/m² | - |
| 1777996449 | 25.56° C | 67% | 1012.4 hPa | 0 mm | - | 410 W/m² | - |
| 1777996146 | 25.56° C | 69% | 1012.1 hPa | 0 mm | - | 400 W/m² | - |
| 1777995841 | 26.11° C | 66% | 1012.1 hPa | 0 mm | - | 417 W/m² | - |
| 1777995538 | 26.11° C | 67% | 1012.1 hPa | 0 mm | - | 508 W/m² | - |
| 1777995235 | 25.56° C | 68% | 1012.4 hPa | 0 mm | - | 625 W/m² | - |
| 1777994932 | 25.56° C | 66% | 1012.1 hPa | 0 mm | - | 586 W/m² | - |
| 1777994588 | 25.56° C | 69% | 1012.3 hPa | 0 mm | - | 558 W/m² | - |
| 1777994288 | 25.56° C | 69% | 1012.3 hPa | 0 mm | - | 558 W/m² | - |
| 1777993985 | 25.56° C | 68% | 1012.3 hPa | 0 mm | - | 299 W/m² | - |
* Rain latest hour (hover to see other rain measurements)
** Current wind speed in m/s (hover to see current wind gust speed)